Terminal Aerodrome Forecast
Issued by NWS Flagstaff, AZ

Home | Current Version | Previous Version | Text Only | Print | Product List | Glossary On
Versions: 1 2 3 4 5 6 7 8 9 10 11 12 13 14 15 16
800
FTUS45 KFGZ 230705 AAA
TAFFLG
TAF AMD
KFLG 230705Z 2307/2406 22009KT 2SM -SHSN BR OVC011
      TEMPO 2307/2310 3/4SM -SHSN BR OVC007
     FM231600 24014G24KT 4SM -SHSN BR BKN012 OVC025=

USA.gov is the U.S. government's official web portal to all federal, state and local government web resources and services.